createdAt,value
2022-10-08T00:02:01.377Z,11.03
2022-10-08T00:05:03.065Z,11.01
2022-10-08T00:08:04.948Z,11.00
2022-10-08T00:11:07.522Z,11.04
2022-10-08T00:14:10.576Z,10.97
2022-10-08T00:17:12.310Z,11.08
2022-10-08T00:20:13.967Z,11.12
2022-10-08T00:23:15.612Z,11.09
2022-10-08T00:26:17.897Z,11.11
2022-10-08T00:29:21.614Z,11.06
2022-10-08T00:32:25.832Z,11.09
2022-10-08T00:35:27.504Z,11.07
2022-10-08T00:38:29.322Z,11.05
2022-10-08T00:41:31.823Z,10.98
2022-10-08T00:44:54.574Z,10.93
2022-10-08T00:47:56.267Z,10.93
2022-10-08T00:50:58.034Z,10.83
2022-10-08T00:54:00.919Z,10.81
2022-10-08T00:57:02.694Z,10.82
2022-10-08T01:00:06.696Z,10.42
2022-10-08T01:03:08.359Z,10.49
2022-10-08T01:06:15.585Z,10.51
2022-10-08T01:09:20.844Z,10.57
2022-10-08T01:12:28.502Z,10.64
2022-10-08T01:15:34.424Z,10.64
2022-10-08T01:18:42.922Z,10.72
2022-10-08T01:21:52.272Z,10.70
2022-10-08T01:24:56.404Z,10.67
2022-10-08T01:28:02.749Z,10.72
2022-10-08T01:31:06.693Z,10.65
2022-10-08T01:34:09.768Z,10.65
2022-10-08T01:37:14.203Z,10.51
2022-10-08T01:40:19.446Z,10.42
2022-10-08T01:43:24.087Z,10.36
2022-10-08T01:46:28.225Z,10.35
2022-10-08T01:49:31.628Z,10.34
2022-10-08T01:52:35.903Z,10.38
2022-10-08T01:55:39.041Z,10.40
2022-10-08T01:58:46.408Z,10.40
2022-10-08T02:01:51.639Z,10.18
2022-10-08T02:04:54.060Z,10.27
2022-10-08T02:07:55.849Z,10.33
2022-10-08T02:10:57.429Z,10.09
2022-10-08T02:14:00.466Z,10.25
2022-10-08T02:17:08.150Z,10.18
2022-10-08T02:20:15.088Z,10.31
2022-10-08T02:23:21.221Z,10.36
2022-10-08T02:26:26.375Z,10.36
2022-10-08T02:29:35.042Z,10.28
2022-10-08T02:32:38.675Z,10.28
2022-10-08T02:35:43.936Z,10.23
2022-10-08T02:38:51.305Z,10.10
2022-10-08T02:41:54.969Z,10.04
2022-10-08T02:45:00.457Z,10.08
2022-10-08T02:48:06.590Z,10.02
2022-10-08T02:51:11.706Z,10.00
2022-10-08T02:54:13.379Z,10.07
2022-10-08T02:57:17.057Z,9.95
2022-10-08T03:00:20.278Z,9.94
2022-10-08T03:03:26.021Z,9.81
2022-10-08T03:06:28.383Z,9.79
2022-10-08T03:09:32.688Z,9.92
2022-10-08T03:12:34.643Z,9.91
2022-10-08T03:15:39.986Z,9.94
2022-10-08T03:18:41.700Z,9.98
2022-10-08T03:21:44.806Z,9.98
2022-10-08T03:24:46.525Z,9.80
2022-10-08T03:27:49.939Z,9.91
2022-10-08T03:30:53.070Z,9.90
2022-10-08T03:33:55.074Z,9.89
2022-10-08T03:36:56.734Z,9.91
2022-10-08T03:39:58.385Z,9.90
2022-10-08T03:43:00.082Z,9.85
2022-10-08T03:46:04.678Z,9.86
2022-10-08T03:49:06.494Z,9.83
2022-10-08T03:52:08.216Z,9.78
2022-10-08T03:55:10.087Z,9.86
2022-10-08T03:58:11.821Z,9.88
2022-10-08T04:01:15.885Z,9.90
2022-10-08T04:04:19.707Z,9.93
2022-10-08T04:07:24.917Z,9.87
2022-10-08T04:10:26.643Z,9.91
2022-10-08T04:13:28.409Z,9.94
2022-10-08T04:16:31.462Z,9.91
2022-10-08T04:19:33.152Z,9.92
2022-10-08T04:22:34.873Z,9.95
2022-10-08T04:25:37.013Z,9.95
2022-10-08T04:28:39.928Z,9.92
2022-10-08T04:31:43.186Z,9.92
2022-10-08T04:34:44.780Z,9.90
2022-10-08T04:37:46.529Z,9.89
2022-10-08T04:40:48.327Z,9.83
2022-10-08T04:43:50.863Z,9.73
2022-10-08T04:46:53.947Z,9.57
2022-10-08T04:49:55.843Z,9.48
2022-10-08T04:52:57.589Z,9.56
2022-10-08T04:56:07.204Z,9.43
2022-10-08T04:59:08.847Z,9.45
2022-10-08T05:02:11.854Z,9.40
2022-10-08T05:05:13.734Z,9.30
2022-10-08T05:08:15.359Z,9.08
2022-10-08T05:11:17.556Z,9.12
2022-10-08T05:14:19.254Z,9.19
2022-10-08T05:17:22.354Z,9.30
2022-10-08T05:20:24.002Z,9.22
2022-10-08T05:23:25.726Z,9.23
2022-10-08T05:26:46.720Z,9.25
2022-10-08T05:29:49.843Z,9.15
2022-10-08T05:32:52.928Z,9.18
2022-10-08T05:35:54.617Z,9.11
2022-10-08T05:38:56.590Z,9.07
2022-10-08T05:41:58.295Z,9.11
2022-10-08T05:44:59.922Z,9.15
2022-10-08T05:48:02.950Z,9.19
2022-10-08T05:51:05.210Z,9.13
2022-10-08T05:54:06.805Z,9.00
2022-10-08T05:57:08.735Z,8.99
2022-10-08T06:00:11.103Z,9.02
2022-10-08T06:03:14.156Z,9.04
2022-10-08T06:06:15.968Z,9.13
2022-10-08T06:09:18.958Z,9.22
2022-10-08T06:12:20.583Z,9.32
2022-10-08T06:15:22.241Z,9.39
2022-10-08T06:18:26.082Z,9.49
2022-10-08T06:21:28.037Z,9.46
2022-10-08T06:24:29.709Z,9.49
2022-10-08T06:27:31.353Z,9.56
2022-10-08T06:30:33.000Z,9.51
2022-10-08T06:33:36.068Z,9.64
2022-10-08T06:36:37.758Z,9.69
2022-10-08T06:39:39.414Z,9.67
2022-10-08T06:42:41.077Z,9.80
2022-10-08T06:45:43.437Z,9.81
2022-10-08T06:48:46.786Z,9.85
2022-10-08T06:51:48.498Z,9.91
2022-10-08T06:54:50.493Z,9.93
2022-10-08T06:57:52.364Z,9.97
2022-10-08T07:01:00.926Z,9.99
2022-10-08T07:04:04.479Z,10.04
2022-10-08T07:07:06.154Z,10.02
2022-10-08T07:10:08.164Z,10.01
2022-10-08T07:13:09.849Z,10.03
2022-10-08T07:16:14.723Z,10.04
2022-10-08T07:19:21.372Z,10.12
2022-10-08T07:22:23.502Z,10.19
2022-10-08T07:25:25.163Z,10.18
2022-10-08T07:28:27.450Z,10.23
2022-10-08T07:31:29.967Z,10.20
2022-10-08T07:34:33.133Z,10.21
2022-10-08T07:37:34.840Z,10.23
2022-10-08T07:40:36.519Z,10.38
2022-10-08T07:43:38.831Z,10.46
2022-10-08T07:46:43.457Z,10.53
2022-10-08T07:49:46.471Z,10.51
2022-10-08T07:52:48.268Z,10.60
2022-10-08T07:55:50.245Z,10.73
2022-10-08T07:58:52.171Z,10.84
2022-10-08T08:01:54.132Z,11.16
2022-10-08T08:04:57.655Z,11.28
2022-10-08T08:07:59.521Z,11.21
2022-10-08T08:11:02.134Z,11.32
2022-10-08T08:14:03.804Z,11.48
2022-10-08T08:17:05.463Z,11.51
2022-10-08T08:20:09.854Z,11.49
2022-10-08T08:23:11.515Z,11.64
2022-10-08T08:26:14.892Z,11.79
2022-10-08T08:29:20.432Z,11.78
2022-10-08T08:32:27.558Z,11.82
2022-10-08T08:35:31.527Z,11.87
2022-10-08T08:38:34.464Z,11.90
2022-10-08T08:41:53.668Z,11.96
2022-10-08T08:44:57.930Z,12.06
2022-10-08T08:48:03.839Z,12.17
2022-10-08T08:51:06.943Z,12.20
2022-10-08T08:54:08.786Z,12.21
2022-10-08T08:57:18.588Z,12.26
2022-10-08T09:00:21.685Z,12.33
2022-10-08T09:03:26.673Z,12.41
2022-10-08T09:06:30.339Z,12.52
2022-10-08T09:09:36.562Z,12.56
2022-10-08T09:12:39.248Z,12.66
2022-10-08T09:15:42.601Z,12.77
2022-10-08T09:18:45.907Z,12.91
2022-10-08T09:21:49.003Z,13.01
2022-10-08T09:24:53.430Z,13.33
2022-10-08T09:27:55.971Z,13.56
2022-10-08T09:31:11.244Z,13.83
2022-10-08T09:34:17.845Z,13.82
2022-10-08T09:37:22.740Z,13.91
2022-10-08T09:40:25.892Z,14.01
2022-10-08T09:43:27.604Z,14.12
2022-10-08T09:46:30.212Z,14.43
2022-10-08T09:49:33.119Z,14.55
2022-10-08T09:52:36.714Z,14.74
2022-10-08T09:55:38.459Z,14.90
2022-10-08T09:58:49.135Z,15.14
2022-10-08T10:01:51.215Z,15.42
2022-10-08T10:04:53.836Z,15.63
2022-10-08T10:07:58.457Z,15.59
2022-10-08T10:11:00.109Z,15.70
2022-10-08T10:14:05.062Z,15.58
2022-10-08T10:17:12.177Z,15.66
2022-10-08T10:20:19.258Z,15.89
2022-10-08T10:23:25.338Z,15.92
2022-10-08T10:26:31.034Z,16.02
2022-10-08T10:29:43.809Z,16.02
2022-10-08T10:32:49.047Z,16.04
2022-10-08T10:35:53.351Z,16.15
2022-10-08T10:39:04.273Z,16.32
2022-10-08T10:42:10.942Z,16.50
2022-10-08T10:45:17.028Z,16.61
2022-10-08T10:48:18.686Z,16.52
2022-10-08T10:51:37.604Z,16.47
2022-10-08T10:54:52.123Z,16.41
2022-10-08T10:58:05.101Z,16.46
2022-10-08T11:01:12.148Z,16.51
2022-10-08T11:04:20.281Z,16.82
2022-10-08T11:07:29.502Z,16.86
2022-10-08T11:10:38.795Z,16.79
2022-10-08T11:13:47.745Z,16.96
2022-10-08T11:16:56.884Z,16.89
2022-10-08T11:20:03.523Z,16.99
2022-10-08T11:23:11.415Z,17.02
2022-10-08T11:26:22.703Z,17.17
2022-10-08T11:29:28.577Z,17.25
2022-10-08T11:32:31.050Z,17.30
2022-10-08T11:35:38.376Z,17.18
2022-10-08T11:38:42.794Z,17.23
2022-10-08T11:41:51.105Z,17.54
2022-10-08T11:44:52.753Z,17.48
2022-10-08T11:47:55.072Z,17.67
2022-10-08T11:51:11.547Z,17.83
2022-10-08T11:54:17.957Z,17.95
2022-10-08T11:57:22.274Z,17.99
2022-10-08T12:00:29.832Z,17.97
2022-10-08T12:03:32.757Z,17.98
2022-10-08T12:06:34.584Z,17.77
2022-10-08T12:09:54.641Z,17.96
2022-10-08T12:13:23.308Z,17.92
2022-10-08T12:16:46.340Z,17.58
2022-10-08T12:20:05.839Z,17.57
2022-10-08T12:23:08.161Z,17.60
2022-10-08T12:26:10.506Z,17.70
2022-10-08T12:29:26.699Z,17.79
2022-10-08T12:32:30.569Z,17.79
2022-10-08T12:35:36.601Z,17.75
2022-10-08T12:38:40.901Z,17.68
2022-10-08T12:41:46.591Z,17.73
2022-10-08T12:44:57.875Z,17.80
2022-10-08T12:48:04.581Z,17.84
2022-10-08T12:51:14.699Z,17.88
2022-10-08T12:54:18.659Z,17.69
2022-10-08T12:57:22.189Z,17.74
2022-10-08T13:00:25.524Z,17.56
2022-10-08T13:03:28.573Z,17.58
2022-10-08T13:06:33.852Z,17.67
2022-10-08T13:09:35.848Z,17.95
2022-10-08T13:12:37.462Z,17.97
2022-10-08T13:15:39.136Z,18.08
2022-10-08T13:18:42.890Z,18.06
2022-10-08T13:21:53.866Z,17.95
2022-10-08T13:24:55.568Z,18.17
2022-10-08T13:28:10.338Z,18.11
2022-10-08T13:31:21.832Z,17.89
2022-10-08T13:50:07.827Z,17.57
2022-10-08T13:53:11.619Z,17.59
2022-10-08T13:56:13.570Z,17.70
2022-10-08T13:59:15.557Z,17.60
2022-10-08T14:02:17.592Z,17.68
2022-10-08T14:05:21.633Z,17.70
2022-10-08T14:08:25.502Z,17.63
2022-10-08T14:11:27.411Z,17.67
2022-10-08T14:14:29.428Z,17.56
2022-10-08T14:17:31.326Z,17.45
2022-10-08T14:20:35.609Z,17.41
2022-10-08T14:23:37.486Z,17.40
2022-10-08T14:26:39.382Z,17.32
2022-10-08T14:29:41.298Z,17.32
2022-10-08T14:32:43.545Z,17.27
2022-10-08T14:35:50.583Z,17.20
2022-10-08T14:38:52.519Z,17.19
2022-10-08T14:41:54.462Z,17.20
2022-10-08T14:44:56.604Z,17.07
2022-10-08T14:47:58.449Z,17.08
2022-10-08T14:51:01.740Z,17.12
2022-10-08T14:54:04.050Z,17.13
2022-10-08T14:57:05.968Z,16.97
2022-10-08T15:00:08.862Z,16.96
2022-10-08T15:03:10.710Z,16.93
2022-10-08T15:06:13.939Z,16.90
2022-10-08T15:09:15.901Z,16.64
2022-10-08T15:12:17.773Z,16.56
2022-10-08T15:15:19.643Z,16.40
2022-10-08T15:18:21.478Z,16.51
2022-10-08T15:21:24.730Z,16.52
2022-10-08T15:24:26.574Z,16.63
2022-10-08T15:27:28.440Z,16.60
2022-10-08T15:30:30.412Z,16.58
2022-10-08T15:33:36.993Z,16.60
2022-10-08T15:36:40.232Z,16.54
2022-10-08T15:39:42.202Z,16.32
2022-10-08T15:42:44.265Z,16.10
2022-10-08T15:45:46.297Z,16.08
2022-10-08T15:48:53.066Z,16.02
2022-10-08T15:51:56.381Z,15.80
2022-10-08T15:54:58.249Z,15.73
2022-10-08T15:58:00.113Z,15.73
2022-10-08T16:01:06.356Z,15.50
2022-10-08T16:04:12.000Z,15.49
2022-10-08T16:07:15.288Z,15.47
2022-10-08T16:10:17.303Z,15.46
2022-10-08T16:13:19.192Z,15.53
2022-10-08T16:16:22.023Z,15.30
2022-10-08T16:19:25.616Z,15.05
2022-10-08T16:22:28.883Z,14.91
2022-10-08T16:25:30.739Z,15.15
2022-10-08T16:28:34.202Z,15.14
2022-10-08T16:31:37.750Z,15.10
2022-10-08T16:34:44.097Z,15.03
2022-10-08T16:37:48.204Z,15.16
2022-10-08T16:40:50.068Z,15.23
2022-10-08T16:43:53.717Z,15.03
2022-10-08T16:46:55.519Z,14.93
2022-10-08T16:49:57.357Z,15.02
2022-10-08T16:53:00.600Z,15.09
2022-10-08T16:56:02.950Z,14.92
2022-10-08T16:59:06.683Z,14.94
2022-10-08T17:02:10.182Z,14.89
2022-10-08T17:05:12.135Z,14.85
2022-10-08T17:08:15.343Z,14.73
2022-10-08T17:11:18.137Z,14.72
2022-10-08T17:14:20.509Z,14.62
2022-10-08T17:17:22.581Z,14.55
2022-10-08T17:20:24.516Z,14.46
2022-10-08T17:23:30.904Z,14.55
2022-10-08T17:26:33.333Z,14.53
2022-10-08T17:29:35.244Z,14.55
2022-10-08T17:32:37.322Z,14.38
2022-10-08T17:35:39.212Z,14.32
2022-10-08T17:38:44.079Z,14.16
2022-10-08T17:41:46.206Z,14.29
2022-10-08T17:44:48.178Z,14.40
2022-10-08T17:47:50.185Z,14.43
2022-10-08T17:50:52.523Z,14.52
2022-10-08T17:53:58.090Z,14.60
2022-10-08T17:57:00.413Z,14.65
2022-10-08T18:00:02.401Z,14.63
2022-10-08T18:03:06.583Z,14.64
2022-10-08T18:06:10.471Z,14.45
2022-10-08T18:09:16.257Z,14.45
2022-10-08T18:12:18.950Z,14.39
2022-10-08T18:15:21.324Z,14.27
2022-10-08T18:18:23.492Z,14.39
2022-10-08T18:21:26.445Z,14.29
2022-10-08T18:24:30.545Z,14.22
2022-10-08T18:27:33.097Z,14.32
2022-10-08T18:30:36.864Z,14.25
2022-10-08T18:33:41.048Z,14.08
2022-10-08T18:36:45.398Z,14.16
2022-10-08T18:39:48.922Z,14.15
2022-10-08T18:42:51.440Z,14.08
2022-10-08T18:45:53.373Z,14.21
2022-10-08T18:48:56.422Z,13.99
2022-10-08T18:51:59.874Z,14.17
2022-10-08T18:55:04.987Z,14.20
2022-10-08T18:58:07.126Z,14.22
2022-10-08T19:01:17.856Z,14.05
2022-10-08T19:04:21.972Z,13.84
2022-10-08T19:07:24.210Z,13.97
2022-10-08T19:10:27.977Z,13.93
2022-10-08T19:13:30.120Z,13.98
2022-10-08T19:16:34.833Z,13.97
2022-10-08T19:19:36.722Z,14.08
2022-10-08T19:22:39.417Z,14.17
2022-10-08T19:25:42.878Z,14.25
2022-10-08T19:28:46.727Z,14.34
2022-10-08T19:31:49.955Z,14.40
2022-10-08T19:34:54.116Z,14.42
2022-10-08T19:37:56.700Z,14.47
2022-10-08T19:41:01.209Z,14.53
2022-10-08T19:44:05.033Z,14.46
2022-10-08T19:47:12.104Z,14.42
2022-10-08T19:50:17.762Z,14.44
2022-10-08T19:53:21.258Z,14.41
2022-10-08T19:56:24.899Z,14.40
2022-10-08T19:59:27.411Z,14.42
2022-10-08T20:02:29.554Z,14.42
2022-10-08T20:05:31.709Z,14.32
2022-10-08T20:08:34.111Z,14.39
2022-10-08T20:11:39.657Z,14.41
2022-10-08T20:14:41.669Z,14.16
2022-10-08T20:17:43.571Z,14.14
2022-10-08T20:20:45.460Z,13.86
2022-10-08T20:23:47.485Z,13.80
2022-10-08T20:26:50.758Z,13.79
2022-10-08T20:29:52.693Z,13.89
2022-10-08T20:32:54.611Z,13.99
2022-10-08T20:35:56.485Z,14.08
2022-10-08T20:38:58.539Z,14.16
2022-10-08T20:42:01.806Z,14.18
2022-10-08T20:45:04.151Z,14.16
2022-10-08T20:48:06.009Z,14.16
2022-10-08T20:51:10.764Z,14.15
2022-10-08T20:54:14.106Z,14.15
2022-10-08T20:57:17.393Z,14.18
2022-10-08T21:00:19.433Z,14.21
2022-10-08T21:03:21.303Z,14.24
2022-10-08T21:06:25.148Z,14.28
2022-10-08T21:09:26.997Z,14.25
2022-10-08T21:12:30.252Z,14.23
2022-10-08T21:15:32.231Z,14.14
2022-10-08T21:18:35.245Z,14.12
2022-10-08T21:21:37.247Z,14.08
2022-10-08T21:24:39.097Z,14.00
2022-10-08T21:27:42.351Z,13.97
2022-10-08T21:30:44.214Z,13.83
2022-10-08T21:33:47.802Z,13.58
2022-10-08T21:36:49.770Z,13.57
2022-10-08T21:39:51.715Z,13.30
2022-10-08T21:42:55.037Z,13.28
2022-10-08T21:45:57.940Z,13.06
2022-10-08T21:49:02.171Z,13.11
2022-10-08T21:52:04.076Z,12.99
2022-10-08T21:55:06.944Z,13.04
2022-10-08T21:58:10.202Z,13.10
2022-10-08T22:01:20.873Z,12.94
2022-10-08T22:04:24.470Z,12.88
2022-10-08T22:07:26.350Z,12.98
2022-10-08T22:10:28.278Z,12.85
2022-10-08T22:13:31.870Z,12.77
2022-10-08T22:16:34.074Z,12.95
2022-10-08T22:19:36.037Z,12.90
2022-10-08T22:22:37.929Z,13.02
2022-10-08T22:25:39.843Z,12.94
2022-10-08T22:28:43.927Z,13.06
2022-10-08T22:31:46.170Z,13.08
2022-10-08T22:34:48.081Z,13.12
2022-10-08T22:37:49.954Z,13.12
2022-10-08T22:40:51.816Z,13.11
2022-10-08T22:43:55.579Z,13.16
2022-10-08T22:46:57.461Z,13.15
2022-10-08T22:49:59.341Z,13.15
2022-10-08T22:53:01.423Z,12.99
2022-10-08T22:56:04.946Z,13.07
2022-10-08T22:59:08.219Z,13.07
2022-10-08T23:02:10.119Z,12.91
2022-10-08T23:05:12.040Z,12.68
2022-10-08T23:08:13.892Z,12.80
2022-10-08T23:11:16.351Z,12.89
2022-10-08T23:14:19.594Z,13.00
2022-10-08T23:17:21.465Z,13.04
2022-10-08T23:20:23.280Z,13.08
2022-10-08T23:23:25.153Z,12.94
2022-10-08T23:26:27.789Z,12.86
2022-10-08T23:29:31.046Z,12.81
2022-10-08T23:32:32.911Z,12.86
2022-10-08T23:35:34.744Z,12.78
2022-10-08T23:38:37.132Z,12.84
2022-10-08T23:41:39.187Z,12.86
2022-10-08T23:44:42.435Z,12.93
2022-10-08T23:47:44.305Z,13.00
2022-10-08T23:50:49.585Z,13.01
2022-10-08T23:53:52.464Z,12.99
2022-10-08T23:56:54.302Z,12.94
2022-10-08T23:59:57.546Z,12.99
